createdAt,value
2022-12-18T00:01:37.163Z,100.00
2022-12-18T00:04:05.923Z,100.00
2022-12-18T00:06:33.679Z,99.69
2022-12-18T00:09:01.294Z,100.00
2022-12-18T00:11:30.070Z,99.67
2022-12-18T00:14:01.703Z,99.57
2022-12-18T00:16:31.219Z,100.00
2022-12-18T00:19:00.674Z,100.00
2022-12-18T00:21:28.876Z,100.00
2022-12-18T00:23:55.606Z,99.62
2022-12-18T00:26:28.162Z,100.00
2022-12-18T00:28:56.518Z,100.00
2022-12-18T00:31:24.854Z,99.90
2022-12-18T00:33:55.282Z,100.00
2022-12-18T00:36:28.058Z,100.00
2022-12-18T00:38:56.372Z,100.00
2022-12-18T00:50:51.425Z,100.00
2022-12-18T00:53:18.442Z,100.00
2022-12-18T00:55:46.653Z,100.00
2022-12-18T00:58:15.008Z,100.00
2022-12-18T01:00:41.882Z,100.00
2022-12-18T01:03:08.513Z,100.00
2022-12-18T01:05:34.957Z,100.00
2022-12-18T01:08:01.417Z,100.00
2022-12-18T01:10:27.893Z,100.00
2022-12-18T01:12:54.369Z,100.00
2022-12-18T01:15:21.476Z,100.00
2022-12-18T01:17:47.998Z,100.00
2022-12-18T01:20:14.907Z,100.00
2022-12-18T01:22:41.575Z,100.00
2022-12-18T01:25:09.693Z,100.00
2022-12-18T01:27:36.109Z,100.00
2022-12-18T01:30:02.827Z,100.00
2022-12-18T01:32:31.687Z,100.00
2022-12-18T01:34:58.285Z,99.95
2022-12-18T01:37:24.849Z,100.00
2022-12-18T01:39:53.339Z,100.00
2022-12-18T01:42:19.834Z,100.00
2022-12-18T01:45:07.909Z,100.00
2022-12-18T01:47:39.703Z,100.00
2022-12-18T01:50:22.625Z,100.00
2022-12-18T01:53:01.021Z,100.00
2022-12-18T01:55:31.740Z,100.00
2022-12-18T01:58:00.332Z,100.00
2022-12-18T02:00:27.862Z,100.00
2022-12-18T02:02:55.149Z,100.00
2022-12-18T02:05:39.901Z,100.00
2022-12-18T02:08:34.743Z,100.00
2022-12-18T02:11:11.655Z,100.00
2022-12-18T02:13:53.235Z,100.00
2022-12-18T02:17:06.377Z,100.00
2022-12-18T02:19:57.315Z,100.00
2022-12-18T02:22:42.918Z,100.00
2022-12-18T02:25:34.475Z,100.00
2022-12-18T02:28:06.808Z,100.00
2022-12-18T02:30:37.124Z,100.00
2022-12-18T02:33:07.866Z,100.00
2022-12-18T02:35:36.239Z,100.00
2022-12-18T02:38:05.152Z,100.00
2022-12-18T02:40:32.796Z,100.00
2022-12-18T02:43:14.069Z,100.00
2022-12-18T02:45:57.581Z,100.00
2022-12-18T02:48:30.697Z,100.00
2022-12-18T02:51:24.773Z,100.00
2022-12-18T02:54:11.703Z,100.00
2022-12-18T02:56:51.484Z,100.00
2022-12-18T02:59:32.817Z,100.00
2022-12-18T03:02:07.489Z,100.00
2022-12-18T03:05:01.928Z,100.00
2022-12-18T03:07:39.054Z,100.00
2022-12-18T03:10:09.703Z,100.00
2022-12-18T03:12:40.869Z,100.00
2022-12-18T03:15:21.646Z,100.00
2022-12-18T03:17:56.047Z,100.00
2022-12-18T03:20:26.602Z,99.68
2022-12-18T03:22:59.945Z,100.00
2022-12-18T03:25:28.744Z,100.00
2022-12-18T03:27:58.772Z,100.00
2022-12-18T03:30:29.551Z,99.88
2022-12-18T03:33:30.130Z,100.00
2022-12-18T03:35:57.126Z,100.00
2022-12-18T03:38:24.115Z,100.00
2022-12-18T03:41:14.092Z,99.87
2022-12-18T03:44:18.158Z,100.00
2022-12-18T03:46:50.519Z,99.68
2022-12-18T03:49:35.502Z,99.97
2022-12-18T03:52:15.336Z,99.63
2022-12-18T03:54:45.927Z,99.98
2022-12-18T03:57:25.792Z,99.51
2022-12-18T03:59:57.897Z,99.66
2022-12-18T04:02:25.918Z,100.00
2022-12-18T04:05:00.584Z,99.78
2022-12-18T04:07:28.038Z,99.55
2022-12-18T04:09:57.441Z,99.30
2022-12-18T04:12:27.459Z,99.53
2022-12-18T04:14:53.964Z,99.28
2022-12-18T04:17:21.007Z,99.53
2022-12-18T04:19:47.658Z,99.57
2022-12-18T04:22:14.205Z,99.11
2022-12-18T04:24:40.720Z,99.30
2022-12-18T04:27:07.333Z,98.96
2022-12-18T04:29:33.989Z,99.14
2022-12-18T04:32:00.607Z,99.26
2022-12-18T04:34:27.734Z,98.98
2022-12-18T04:36:54.299Z,99.52
2022-12-18T04:39:20.878Z,99.28
2022-12-18T04:41:47.435Z,99.42
2022-12-18T04:44:14.534Z,99.53
2022-12-18T04:46:41.236Z,99.55
2022-12-18T04:49:07.691Z,99.23
2022-12-18T04:51:34.264Z,99.40
2022-12-18T04:54:00.858Z,99.21
2022-12-18T04:56:27.383Z,99.20
2022-12-18T04:58:53.861Z,99.14
2022-12-18T05:01:20.751Z,99.00
2022-12-18T05:03:47.494Z,98.74
2022-12-18T05:06:14.043Z,99.19
2022-12-18T05:08:40.687Z,98.94
2022-12-18T05:11:14.977Z,99.11
2022-12-18T05:13:43.625Z,98.78
2022-12-18T05:16:10.304Z,99.02
2022-12-18T05:18:37.178Z,99.29
2022-12-18T05:21:04.547Z,99.15
2022-12-18T05:23:31.135Z,98.56
2022-12-18T05:25:59.699Z,99.76
2022-12-18T05:28:29.766Z,99.20
2022-12-18T05:30:59.646Z,99.05
2022-12-18T05:33:29.599Z,98.82
2022-12-18T05:35:58.838Z,99.24
2022-12-18T05:38:27.061Z,98.76
2022-12-18T05:40:54.441Z,98.75
2022-12-18T05:43:25.342Z,98.79
2022-12-18T05:45:52.809Z,98.39
2022-12-18T05:48:19.905Z,98.70
2022-12-18T05:50:48.442Z,98.83
2022-12-18T05:53:17.241Z,98.28
2022-12-18T05:55:44.861Z,98.35
2022-12-18T05:58:12.776Z,98.64
2022-12-18T06:00:42.520Z,98.22
2022-12-18T06:03:11.008Z,98.43
2022-12-18T06:05:42.579Z,98.88
2022-12-18T06:08:09.968Z,98.58
2022-12-18T06:10:36.538Z,98.54
2022-12-18T06:13:03.128Z,98.52
2022-12-18T06:15:29.590Z,98.55
2022-12-18T06:17:56.009Z,98.60
2022-12-18T06:20:22.986Z,98.65
2022-12-18T06:22:49.525Z,98.44
2022-12-18T06:25:16.446Z,98.51
2022-12-18T06:27:43.036Z,98.24
2022-12-18T06:30:11.450Z,98.80
2022-12-18T06:32:38.020Z,99.19
2022-12-18T06:35:04.948Z,98.33
2022-12-18T06:37:32.663Z,98.71
2022-12-18T06:39:59.237Z,98.67
2022-12-18T06:42:26.122Z,98.59
2022-12-18T06:44:52.702Z,98.76
2022-12-18T06:47:19.532Z,98.87
2022-12-18T06:49:45.960Z,98.76
2022-12-18T06:52:12.511Z,98.57
2022-12-18T06:54:38.971Z,98.59
2022-12-18T06:57:05.354Z,98.72
2022-12-18T06:59:32.053Z,98.67
2022-12-18T07:01:58.656Z,98.66
2022-12-18T07:04:30.693Z,98.35
2022-12-18T07:06:57.243Z,98.94
2022-12-18T07:09:24.171Z,98.41
2022-12-18T07:11:51.076Z,97.76
2022-12-18T07:14:17.520Z,98.38
2022-12-18T07:16:44.096Z,98.52
2022-12-18T07:19:10.695Z,98.62
2022-12-18T07:21:37.274Z,98.60
2022-12-18T07:24:04.598Z,98.37
2022-12-18T07:26:31.526Z,98.05
2022-12-18T07:28:58.851Z,98.56
2022-12-18T07:31:26.802Z,98.03
2022-12-18T07:33:54.573Z,98.16
2022-12-18T07:36:22.130Z,98.24
2022-12-18T07:38:49.932Z,98.64
2022-12-18T07:41:17.300Z,98.22
2022-12-18T07:43:44.421Z,98.52
2022-12-18T07:46:14.676Z,98.55
2022-12-18T07:48:42.993Z,98.33
2022-12-18T07:51:11.300Z,98.65
2022-12-18T07:53:38.249Z,98.38
2022-12-18T07:58:55.165Z,98.15
2022-12-18T08:01:21.767Z,98.47
2022-12-18T08:03:48.487Z,98.49
2022-12-18T08:06:16.386Z,97.95
2022-12-18T08:08:43.227Z,97.35
2022-12-18T08:11:09.782Z,98.25
2022-12-18T08:13:36.441Z,97.52
2022-12-18T08:16:08.280Z,97.26
2022-12-18T08:18:37.741Z,97.59
2022-12-18T08:21:23.737Z,97.07
2022-12-18T08:23:51.902Z,97.67
2022-12-18T08:26:19.172Z,97.93
2022-12-18T08:28:47.606Z,97.64
2022-12-18T08:31:14.822Z,97.99
2022-12-18T08:33:43.819Z,97.43
2022-12-18T08:36:13.678Z,97.52
2022-12-18T08:38:40.314Z,97.48
2022-12-18T08:41:11.178Z,97.58
2022-12-18T08:43:57.743Z,97.90
2022-12-18T08:46:27.970Z,98.13
2022-12-18T08:48:56.847Z,97.65
2022-12-18T08:51:26.375Z,97.91
2022-12-18T08:53:52.974Z,97.75
2022-12-18T08:56:20.715Z,98.12
2022-12-18T08:58:47.593Z,97.70
2022-12-18T09:01:16.219Z,98.16
2022-12-18T09:03:44.217Z,98.33
2022-12-18T09:06:16.749Z,97.69
2022-12-18T09:08:45.083Z,97.71
2022-12-18T09:11:24.158Z,97.60
2022-12-18T09:13:51.618Z,97.54
2022-12-18T09:16:20.535Z,97.35
2022-12-18T09:18:47.728Z,98.07
2022-12-18T09:21:17.349Z,97.68
2022-12-18T09:23:45.641Z,97.39
2022-12-18T09:26:12.246Z,97.89
2022-12-18T09:28:39.313Z,97.11
2022-12-18T09:31:11.691Z,97.31
2022-12-18T09:33:40.052Z,97.26
2022-12-18T09:36:11.278Z,97.68
2022-12-18T09:38:38.317Z,97.68
2022-12-18T09:41:36.030Z,97.90
2022-12-18T09:44:19.271Z,97.08
2022-12-18T09:46:55.257Z,97.26
2022-12-18T09:49:27.242Z,97.80
2022-12-18T09:52:02.004Z,97.60
2022-12-18T09:55:03.098Z,97.84
2022-12-18T09:57:33.382Z,97.72
2022-12-18T10:00:19.375Z,97.59
2022-12-18T10:02:49.360Z,97.79
2022-12-18T10:05:35.278Z,97.29
2022-12-18T10:08:40.801Z,97.81
2022-12-18T10:11:35.616Z,97.74
2022-12-18T10:14:07.097Z,97.75
2022-12-18T10:16:49.542Z,96.97
2022-12-18T10:19:34.540Z,96.88
2022-12-18T10:22:04.095Z,96.30
2022-12-18T10:24:35.731Z,97.00
2022-12-18T10:27:16.452Z,97.23
2022-12-18T10:29:47.178Z,97.35
2022-12-18T10:32:22.526Z,96.27
2022-12-18T10:34:56.672Z,96.36
2022-12-18T10:37:29.403Z,96.26
2022-12-18T10:40:18.469Z,96.62
2022-12-18T10:43:09.457Z,96.46
2022-12-18T10:45:36.289Z,96.80
2022-12-18T10:48:04.337Z,96.34
2022-12-18T10:51:09.061Z,96.77
2022-12-18T10:53:28.719Z,95.96
2022-12-18T10:56:01.664Z,96.52
2022-12-18T10:58:33.151Z,95.80
2022-12-18T11:01:16.834Z,96.15
2022-12-18T11:04:02.729Z,96.02
2022-12-18T11:06:30.251Z,95.74
2022-12-18T11:09:20.409Z,94.95
2022-12-18T11:11:53.360Z,95.04
2022-12-18T11:14:33.958Z,95.87
2022-12-18T11:20:04.288Z,94.65
2022-12-18T11:22:34.499Z,95.09
2022-12-18T11:28:27.833Z,94.98
2022-12-18T11:31:16.431Z,94.56
2022-12-18T11:34:31.257Z,93.86
2022-12-18T11:37:06.405Z,93.83
2022-12-18T11:39:39.562Z,92.78
2022-12-18T11:42:21.125Z,92.70
2022-12-18T11:44:59.460Z,93.37
2022-12-18T11:47:54.690Z,93.53
2022-12-18T11:50:56.725Z,93.33
2022-12-18T11:53:26.563Z,92.22
2022-12-18T11:56:27.589Z,92.09
2022-12-18T11:59:51.799Z,92.60
2022-12-18T12:03:00.932Z,92.22
2022-12-18T12:05:39.278Z,92.64
2022-12-18T12:08:50.199Z,92.33
2022-12-18T12:11:54.913Z,92.30
2022-12-18T12:14:39.551Z,92.13
2022-12-18T12:17:44.302Z,92.37
2022-12-18T12:20:33.579Z,92.19
2022-12-18T12:23:06.853Z,91.23
2022-12-18T12:25:54.805Z,91.16
2022-12-18T12:28:48.276Z,91.02
2022-12-18T12:31:38.109Z,91.07
2022-12-18T12:34:19.287Z,91.27
2022-12-18T12:37:07.441Z,90.42
2022-12-18T12:39:38.180Z,90.45
2022-12-18T12:42:31.043Z,90.31
2022-12-18T12:45:02.574Z,89.88
2022-12-18T12:47:33.827Z,90.52
2022-12-18T12:50:07.969Z,89.95
2022-12-18T12:52:40.769Z,90.86
2022-12-18T12:55:18.702Z,90.31
2022-12-18T12:58:12.777Z,90.73
2022-12-18T13:00:52.035Z,90.41
2022-12-18T13:03:27.992Z,90.49
2022-12-18T13:06:01.280Z,90.00
2022-12-18T13:08:33.340Z,90.16
2022-12-18T13:11:22.577Z,89.43
2022-12-18T13:13:57.322Z,89.41
2022-12-18T13:16:28.178Z,89.71
2022-12-18T13:18:59.737Z,89.22
2022-12-18T13:21:34.649Z,88.86
2022-12-18T13:24:36.702Z,89.01
2022-12-18T13:27:45.984Z,89.00
2022-12-18T13:30:47.618Z,90.30
2022-12-18T13:33:20.761Z,88.72
2022-12-18T13:35:48.390Z,89.53
2022-12-18T13:38:31.831Z,88.89
2022-12-18T13:41:03.500Z,90.12
2022-12-18T13:43:50.979Z,89.23
2022-12-18T13:46:30.042Z,89.63
2022-12-18T13:49:20.107Z,89.95
2022-12-18T13:51:56.293Z,89.29
2022-12-18T13:54:41.254Z,89.71
2022-12-18T13:57:26.204Z,89.65
2022-12-18T13:59:53.156Z,88.89
2022-12-18T14:02:29.672Z,89.07
2022-12-18T14:04:56.831Z,89.54
2022-12-18T14:07:27.092Z,89.52
2022-12-18T14:12:57.418Z,89.03
2022-12-18T14:15:27.025Z,88.76
2022-12-18T14:18:15.174Z,88.60
2022-12-18T14:20:49.227Z,87.36
2022-12-18T14:23:48.655Z,87.27
2022-12-18T14:26:29.999Z,87.00
2022-12-18T14:28:59.026Z,86.93
2022-12-18T14:31:28.029Z,87.82
2022-12-18T14:33:55.154Z,87.26
2022-12-18T14:36:24.875Z,86.45
2022-12-18T14:38:58.468Z,86.54
2022-12-18T14:41:26.328Z,86.65
2022-12-18T14:43:55.121Z,87.06
2022-12-18T14:46:37.838Z,87.81
2022-12-18T14:49:18.853Z,87.50
2022-12-18T14:51:51.846Z,87.73
2022-12-18T14:54:20.879Z,87.14
2022-12-18T14:56:51.862Z,86.19
2022-12-18T14:59:24.795Z,86.75
2022-12-18T15:02:05.981Z,87.47
2022-12-18T15:04:40.278Z,87.17
2022-12-18T15:07:18.490Z,86.55
2022-12-18T15:10:01.431Z,87.26
2022-12-18T15:12:36.983Z,85.98
2022-12-18T15:15:04.810Z,87.13
2022-12-18T15:17:31.924Z,86.66
2022-12-18T15:20:04.823Z,85.98
2022-12-18T15:22:35.638Z,86.85
2022-12-18T15:25:04.584Z,86.89
2022-12-18T15:27:38.805Z,85.72
2022-12-18T15:30:11.375Z,86.51
2022-12-18T15:32:39.271Z,85.95
2022-12-18T15:35:11.858Z,85.22
2022-12-18T15:37:39.910Z,84.81
2022-12-18T15:40:09.324Z,85.29
2022-12-18T15:42:54.425Z,85.42
2022-12-18T15:45:20.936Z,85.25
2022-12-18T15:47:49.910Z,85.55
2022-12-18T15:50:16.435Z,84.88
2022-12-18T15:52:46.675Z,85.86
2022-12-18T15:55:33.209Z,85.96
2022-12-18T15:57:59.597Z,85.94
2022-12-18T16:00:26.200Z,85.56
2022-12-18T16:02:53.575Z,85.57
2022-12-18T16:05:22.619Z,85.52
2022-12-18T16:07:49.063Z,85.14
2022-12-18T16:10:15.632Z,84.98
2022-12-18T16:12:42.807Z,84.86
2022-12-18T16:15:14.341Z,85.60
2022-12-18T16:17:41.542Z,85.13
2022-12-18T16:20:17.471Z,85.59
2022-12-18T16:22:46.888Z,85.66
2022-12-18T16:25:24.272Z,85.14
2022-12-18T16:27:51.795Z,84.66
2022-12-18T16:30:21.056Z,84.97
2022-12-18T16:32:47.796Z,84.95
2022-12-18T16:35:16.512Z,85.57
2022-12-18T16:37:43.674Z,84.09
2022-12-18T16:40:13.042Z,83.77
2022-12-18T16:42:40.976Z,85.00
2022-12-18T16:45:09.570Z,84.64
2022-12-18T16:47:36.289Z,84.40
2022-12-18T16:50:02.859Z,84.21
2022-12-18T16:52:30.273Z,85.05
2022-12-18T16:54:57.292Z,83.71
2022-12-18T16:57:25.429Z,84.64
2022-12-18T16:59:52.800Z,84.61
2022-12-18T17:02:25.664Z,84.83
2022-12-18T17:04:55.144Z,83.89
2022-12-18T17:07:21.752Z,84.53
2022-12-18T17:09:50.200Z,84.22
2022-12-18T17:12:17.545Z,84.22
2022-12-18T17:14:44.053Z,83.81
2022-12-18T17:17:25.891Z,84.35
2022-12-18T17:19:52.820Z,83.60
2022-12-18T17:22:20.398Z,84.30
2022-12-18T17:24:47.836Z,84.12
2022-12-18T17:27:14.923Z,84.19
2022-12-18T17:29:47.335Z,84.43
2022-12-18T17:32:15.188Z,83.29
2022-12-18T17:34:41.755Z,83.09
2022-12-18T17:37:08.560Z,84.00
2022-12-18T17:39:35.028Z,82.75
2022-12-18T17:42:01.506Z,83.07
2022-12-18T17:44:28.065Z,83.64
2022-12-18T17:46:54.555Z,83.38
2022-12-18T17:49:21.559Z,83.60
2022-12-18T17:51:49.042Z,82.52
2022-12-18T17:54:15.642Z,83.43
2022-12-18T17:56:42.193Z,84.00
2022-12-18T17:59:09.262Z,83.73
2022-12-18T18:01:42.400Z,82.46
2022-12-18T18:04:11.109Z,82.98
2022-12-18T18:06:39.255Z,82.87
2022-12-18T18:09:09.982Z,82.91
2022-12-18T18:12:01.839Z,82.70
2022-12-18T18:14:28.577Z,82.67
2022-12-18T18:16:55.344Z,83.04
2022-12-18T18:19:24.647Z,83.97
2022-12-18T18:21:53.215Z,83.67
2022-12-18T18:24:26.196Z,84.12
2022-12-18T18:26:53.323Z,82.89
2022-12-18T18:29:22.723Z,83.86
2022-12-18T18:31:50.060Z,83.97
2022-12-18T18:34:20.113Z,83.88
2022-12-18T18:36:46.822Z,83.96
2022-12-18T18:39:14.240Z,84.09
2022-12-18T18:41:41.011Z,83.79
2022-12-18T18:44:10.791Z,82.49
2022-12-18T18:46:37.636Z,82.79
2022-12-18T18:49:07.500Z,82.99
2022-12-18T18:51:35.208Z,83.33
2022-12-18T18:54:02.024Z,83.03
2022-12-18T18:59:15.695Z,82.71
2022-12-18T19:01:46.537Z,82.93
2022-12-18T19:04:13.095Z,82.76
2022-12-18T19:06:39.886Z,83.13
2022-12-18T19:09:07.357Z,82.58
2022-12-18T19:11:52.592Z,83.42
2022-12-18T19:14:19.241Z,83.16
2022-12-18T19:16:45.925Z,82.43
2022-12-18T19:19:13.380Z,82.91
2022-12-18T19:21:40.291Z,82.30
2022-12-18T19:24:07.239Z,81.77
2022-12-18T19:26:33.688Z,82.36
2022-12-18T19:29:05.571Z,81.74
2022-12-18T19:31:35.983Z,81.56
2022-12-18T19:34:06.798Z,81.84
2022-12-18T19:36:55.244Z,81.54
2022-12-18T19:39:34.117Z,81.05
2022-12-18T19:42:00.597Z,81.37
2022-12-18T19:44:27.242Z,81.38
2022-12-18T19:46:53.925Z,80.67
2022-12-18T19:49:20.614Z,80.77
2022-12-18T19:51:47.937Z,80.86
2022-12-18T19:54:17.818Z,81.27
2022-12-18T19:56:45.798Z,81.00
2022-12-18T19:59:13.366Z,81.67
2022-12-18T20:05:34.667Z,82.84
2022-12-18T20:09:19.325Z,84.56
2022-12-18T20:14:06.221Z,84.59
2022-12-18T20:16:55.112Z,86.65
2022-12-18T20:19:45.560Z,87.25
2022-12-18T20:28:56.435Z,88.93
2022-12-18T20:28:59.496Z,87.44
2022-12-18T20:31:55.138Z,88.72
2022-12-18T20:37:51.967Z,89.59
2022-12-18T21:02:05.694Z,93.04
2022-12-18T21:05:09.496Z,94.65
2022-12-18T21:07:48.971Z,93.82
2022-12-18T21:10:27.433Z,94.88
2022-12-18T21:19:37.940Z,95.72
2022-12-18T21:25:27.727Z,96.23
2022-12-18T21:28:31.087Z,96.96
2022-12-18T21:31:03.983Z,96.89
2022-12-18T21:36:37.521Z,97.72
2022-12-18T22:23:41.895Z,100.00
2022-12-18T22:36:15.317Z,100.00
2022-12-18T22:40:13.042Z,100.00
2022-12-18T22:45:59.336Z,100.00
2022-12-18T22:48:54.750Z,100.00
2022-12-18T23:07:23.319Z,100.00
2022-12-18T23:13:31.127Z,100.00
2022-12-18T23:20:01.826Z,100.00
2022-12-18T23:23:14.338Z,100.00
2022-12-18T23:25:50.848Z,100.00
2022-12-18T23:28:20.278Z,100.00
2022-12-18T23:34:05.193Z,100.00
2022-12-18T23:36:46.278Z,100.00
2022-12-18T23:44:44.221Z,100.00
2022-12-18T23:51:35.614Z,100.00
2022-12-18T23:59:57.387Z,100.00
